sensor_id;sensor_type;location;lat;lon;timestamp;pressure;altitude;pressure_sealevel;temperature;humidity
8575;BME280;4325;42.520;27.448;2023-08-06T00:01:00;99805.13;;;25.80;100.00
8575;BME280;4325;42.520;27.448;2023-08-06T00:03:28;99803.94;;;25.81;100.00
8575;BME280;4325;42.520;27.448;2023-08-06T00:05:55;99809.94;;;25.83;100.00
8575;BME280;4325;42.520;27.448;2023-08-06T00:08:22;99802.34;;;25.87;100.00
8575;BME280;4325;42.520;27.448;2023-08-06T00:10:50;99807.97;;;25.91;100.00
8575;BME280;4325;42.520;27.448;2023-08-06T00:13:17;99810.38;;;25.96;100.00
8575;BME280;4325;42.520;27.448;2023-08-06T00:15:44;99811.97;;;25.93;100.00
8575;BME280;4325;42.520;27.448;2023-08-06T00:18:11;99810.75;;;25.84;100.00
8575;BME280;4325;42.520;27.448;2023-08-06T00:20:39;99813.94;;;25.72;100.00
8575;BME280;4325;42.520;27.448;2023-08-06T00:23:07;99809.09;;;25.65;100.00
8575;BME280;4325;42.520;27.448;2023-08-06T00:25:34;99807.84;;;25.55;100.00
8575;BME280;4325;42.520;27.448;2023-08-06T00:28:03;99797.00;;;25.47;100.00
8575;BME280;4325;42.520;27.448;2023-08-06T00:30:30;99800.16;;;25.42;100.00
8575;BME280;4325;42.520;27.448;2023-08-06T00:32:57;99790.53;;;25.36;100.00
8575;BME280;4325;42.520;27.448;2023-08-06T00:35:24;99787.69;;;25.29;100.00
8575;BME280;4325;42.520;27.448;2023-08-06T00:37:51;99782.06;;;25.25;100.00
8575;BME280;4325;42.520;27.448;2023-08-06T00:40:20;99785.25;;;25.20;100.00
8575;BME280;4325;42.520;27.448;2023-08-06T00:42:47;99780.00;;;25.15;100.00
8575;BME280;4325;42.520;27.448;2023-08-06T00:45:16;99781.97;;;25.08;100.00
8575;BME280;4325;42.520;27.448;2023-08-06T00:47:43;99790.38;;;25.08;100.00
8575;BME280;4325;42.520;27.448;2023-08-06T00:50:11;99796.75;;;25.05;100.00
8575;BME280;4325;42.520;27.448;2023-08-06T00:52:38;99786.34;;;25.02;100.00
8575;BME280;4325;42.520;27.448;2023-08-06T00:55:06;99788.72;;;25.00;100.00
8575;BME280;4325;42.520;27.448;2023-08-06T00:57:33;99785.91;;;25.00;100.00
8575;BME280;4325;42.520;27.448;2023-08-06T01:00:00;99778.31;;;25.00;100.00
8575;BME280;4325;42.520;27.448;2023-08-06T01:02:31;99764.72;;;24.99;100.00
8575;BME280;4325;42.520;27.448;2023-08-06T01:04:58;99766.28;;;24.92;100.00
8575;BME280;4325;42.520;27.448;2023-08-06T01:07:33;99762.25;;;24.90;100.00
8575;BME280;4325;42.520;27.448;2023-08-06T01:10:19;99760.63;;;24.85;100.00
8575;BME280;4325;42.520;27.448;2023-08-06T01:12:58;99759.84;;;24.85;100.00
8575;BME280;4325;42.520;27.448;2023-08-06T01:15:35;99768.66;;;24.87;100.00
8575;BME280;4325;42.520;27.448;2023-08-06T01:18:06;99761.41;;;24.82;100.00
8575;BME280;4325;42.520;27.448;2023-08-06T01:20:34;99750.22;;;24.82;100.00
8575;BME280;4325;42.520;27.448;2023-08-06T01:23:01;99747.00;;;24.80;100.00
8575;BME280;4325;42.520;27.448;2023-08-06T01:25:33;99744.59;;;24.79;100.00
8575;BME280;4325;42.520;27.448;2023-08-06T01:28:05;99748.22;;;24.79;100.00
8575;BME280;4325;42.520;27.448;2023-08-06T01:30:39;99753.41;;;24.81;100.00
8575;BME280;4325;42.520;27.448;2023-08-06T01:33:10;99735.81;;;24.77;100.00
8575;BME280;4325;42.520;27.448;2023-08-06T01:35:42;99734.56;;;24.74;100.00
8575;BME280;4325;42.520;27.448;2023-08-06T01:38:09;99731.00;;;24.77;100.00
8575;BME280;4325;42.520;27.448;2023-08-06T01:40:36;99718.56;;;24.75;100.00
8575;BME280;4325;42.520;27.448;2023-08-06T01:43:03;99712.94;;;24.71;100.00
8575;BME280;4325;42.520;27.448;2023-08-06T01:45:30;99714.13;;;24.67;100.00
8575;BME280;4325;42.520;27.448;2023-08-06T01:47:57;99707.66;;;24.59;100.00
8575;BME280;4325;42.520;27.448;2023-08-06T01:50:23;99701.25;;;24.55;100.00
8575;BME280;4325;42.520;27.448;2023-08-06T01:52:52;99698.81;;;24.50;100.00
8575;BME280;4325;42.520;27.448;2023-08-06T01:55:19;99693.19;;;24.43;100.00
8575;BME280;4325;42.520;27.448;2023-08-06T01:57:46;99700.72;;;24.39;100.00
8575;BME280;4325;42.520;27.448;2023-08-06T02:00:13;99693.97;;;24.44;100.00
8575;BME280;4325;42.520;27.448;2023-08-06T02:02:40;99693.94;;;24.40;100.00
8575;BME280;4325;42.520;27.448;2023-08-06T02:05:07;99682.72;;;24.37;100.00
8575;BME280;4325;42.520;27.448;2023-08-06T02:07:34;99695.09;;;24.32;100.00
8575;BME280;4325;42.520;27.448;2023-08-06T02:10:02;99692.28;;;24.32;100.00
8575;BME280;4325;42.520;27.448;2023-08-06T02:12:29;99695.47;;;24.31;100.00
8575;BME280;4325;42.520;27.448;2023-08-06T02:14:56;99697.88;;;24.28;100.00
8575;BME280;4325;42.520;27.448;2023-08-06T02:17:23;99692.22;;;24.25;100.00
8575;BME280;4325;42.520;27.448;2023-08-06T02:19:50;99694.59;;;24.19;100.00
8575;BME280;4325;42.520;27.448;2023-08-06T02:22:16;99688.22;;;24.19;100.00
8575;BME280;4325;42.520;27.448;2023-08-06T02:24:43;99693.72;;;24.12;100.00
8575;BME280;4325;42.520;27.448;2023-08-06T02:27:12;99696.09;;;24.10;100.00
8575;BME280;4325;42.520;27.448;2023-08-06T02:29:40;99706.88;;;24.08;100.00
8575;BME280;4325;42.520;27.448;2023-08-06T02:32:07;99712.84;;;24.06;100.00
8575;BME280;4325;42.520;27.448;2023-08-06T02:34:34;99710.50;;;24.12;100.00
8575;BME280;4325;42.520;27.448;2023-08-06T02:37:01;99705.00;;;24.22;100.00
8575;BME280;4325;42.520;27.448;2023-08-06T02:39:28;99709.47;;;24.31;100.00
8575;BME280;4325;42.520;27.448;2023-08-06T02:41:55;99709.13;;;24.39;100.00
8575;BME280;4325;42.520;27.448;2023-08-06T02:44:23;99715.19;;;24.48;100.00
8575;BME280;4325;42.520;27.448;2023-08-06T02:46:53;99713.22;;;24.52;100.00
8575;BME280;4325;42.520;27.448;2023-08-06T02:49:20;99706.81;;;24.48;100.00
8575;BME280;4325;42.520;27.448;2023-08-06T02:51:47;99692.34;;;24.39;100.00
8575;BME280;4325;42.520;27.448;2023-08-06T02:54:14;99693.97;;;24.44;100.00
8575;BME280;4325;42.520;27.448;2023-08-06T02:56:43;99700.78;;;24.46;100.00
8575;BME280;4325;42.520;27.448;2023-08-06T02:59:10;99713.91;;;24.39;100.00
8575;BME280;4325;42.520;27.448;2023-08-06T03:01:39;99707.91;;;24.37;100.00
8575;BME280;4325;42.520;27.448;2023-08-06T03:04:06;99711.88;;;24.32;100.00
8575;BME280;4325;42.520;27.448;2023-08-06T03:06:33;99717.00;;;24.26;100.00
8575;BME280;4325;42.520;27.448;2023-08-06T03:09:00;99711.81;;;24.21;100.00
8575;BME280;4325;42.520;27.448;2023-08-06T03:11:26;99718.13;;;24.15;100.00
8575;BME280;4325;42.520;27.448;2023-08-06T03:13:53;99720.94;;;24.15;100.00
8575;BME280;4325;42.520;27.448;2023-08-06T03:16:20;99719.75;;;24.16;100.00
8575;BME280;4325;42.520;27.448;2023-08-06T03:18:49;99726.50;;;24.15;100.00
8575;BME280;4325;42.520;27.448;2023-08-06T03:21:16;99724.94;;;24.14;100.00
8575;BME280;4325;42.520;27.448;2023-08-06T03:23:42;99721.78;;;24.19;100.00
8575;BME280;4325;42.520;27.448;2023-08-06T03:26:09;99722.19;;;24.21;100.00
8575;BME280;4325;42.520;27.448;2023-08-06T03:28:36;99714.66;;;24.28;100.00
8575;BME280;4325;42.520;27.448;2023-08-06T03:31:03;99729.06;;;24.34;100.00
8575;BME280;4325;42.520;27.448;2023-08-06T03:33:31;99730.72;;;24.42;100.00
8575;BME280;4325;42.520;27.448;2023-08-06T03:35:59;99713.59;;;24.47;100.00
8575;BME280;4325;42.520;27.448;2023-08-06T03:38:26;99715.63;;;24.54;100.00
8575;BME280;4325;42.520;27.448;2023-08-06T03:40:53;99713.22;;;24.52;100.00
8575;BME280;4325;42.520;27.448;2023-08-06T03:43:20;99707.66;;;24.59;100.00
8575;BME280;4325;42.520;27.448;2023-08-06T03:45:47;99706.09;;;24.65;100.00
8575;BME280;4325;42.520;27.448;2023-08-06T03:48:14;99703.34;;;24.72;100.00
8575;BME280;4325;42.520;27.448;2023-08-06T03:50:41;99702.22;;;24.80;100.00
8575;BME280;4325;42.520;27.448;2023-08-06T03:53:09;99697.84;;;24.86;100.00
8575;BME280;4325;42.520;27.448;2023-08-06T03:55:36;99696.31;;;24.96;100.00
8575;BME280;4325;42.520;27.448;2023-08-06T03:58:03;99687.13;;;25.03;100.00
8575;BME280;4325;42.520;27.448;2023-08-06T04:00:30;99689.56;;;25.15;100.00
8575;BME280;4325;42.520;27.448;2023-08-06T04:02:57;99696.81;;;25.26;100.00
8575;BME280;4325;42.520;27.448;2023-08-06T04:05:24;99684.84;;;25.36;100.00
8575;BME280;4325;42.520;27.448;2023-08-06T04:07:50;99688.91;;;25.53;100.00
8575;BME280;4325;42.520;27.448;2023-08-06T04:10:19;99688.56;;;25.65;100.00
8575;BME280;4325;42.520;27.448;2023-08-06T04:12:46;99679.34;;;25.75;100.00
8575;BME280;4325;42.520;27.448;2023-08-06T04:15:13;99675.75;;;25.89;100.00
8575;BME280;4325;42.520;27.448;2023-08-06T04:17:40;99672.56;;;25.94;100.00
8575;BME280;4325;42.520;27.448;2023-08-06T04:20:08;99668.94;;;25.79;100.00
8575;BME280;4325;42.520;27.448;2023-08-06T04:22:35;99670.53;;;25.73;100.00
8575;BME280;4325;42.520;27.448;2023-08-06T04:25:02;99662.91;;;25.63;100.00
8575;BME280;4325;42.520;27.448;2023-08-06T04:27:30;99654.88;;;25.51;100.00
8575;BME280;4325;42.520;27.448;2023-08-06T04:29:57;99657.63;;;25.44;100.00
8575;BME280;4325;42.520;27.448;2023-08-06T04:32:24;99656.47;;;25.45;100.00
8575;BME280;4325;42.520;27.448;2023-08-06T04:34:51;99649.69;;;25.56;100.00
8575;BME280;4325;42.520;27.448;2023-08-06T04:37:18;99654.50;;;25.67;100.00
8575;BME280;4325;42.520;27.448;2023-08-06T04:39:45;99658.13;;;25.74;100.00
8575;BME280;4325;42.520;27.448;2023-08-06T04:42:12;99658.50;;;25.83;100.00
8575;BME280;4325;42.520;27.448;2023-08-06T04:44:40;99656.09;;;25.85;100.00
8575;BME280;4325;42.520;27.448;2023-08-06T04:47:07;99652.91;;;25.87;100.00
8575;BME280;4325;42.520;27.448;2023-08-06T04:49:34;99650.50;;;25.96;100.00
8575;BME280;4325;42.520;27.448;2023-08-06T04:52:01;99644.88;;;25.99;100.00
8575;BME280;4325;42.520;27.448;2023-08-06T04:54:28;99646.13;;;26.12;100.00
8575;BME280;4325;42.520;27.448;2023-08-06T04:56:55;99650.13;;;26.26;100.00
8575;BME280;4325;42.520;27.448;2023-08-06T04:59:22;99661.72;;;26.42;100.00
8575;BME280;4325;42.520;27.448;2023-08-06T05:01:50;99656.06;;;26.56;100.00
8575;BME280;4325;42.520;27.448;2023-08-06T05:04:17;99648.84;;;26.62;100.00
8575;BME280;4325;42.520;27.448;2023-08-06T05:06:44;99650.41;;;26.63;100.00
8575;BME280;4325;42.520;27.448;2023-08-06T05:09:11;99649.66;;;26.52;100.00
8575;BME280;4325;42.520;27.448;2023-08-06T05:11:38;99636.81;;;26.51;100.00
8575;BME280;4325;42.520;27.448;2023-08-06T05:14:05;99636.78;;;26.58;100.00
8575;BME280;4325;42.520;27.448;2023-08-06T05:16:32;99622.34;;;26.63;100.00
8575;BME280;4325;42.520;27.448;2023-08-06T05:19:00;99615.50;;;26.74;100.00
8575;BME280;4325;42.520;27.448;2023-08-06T05:21:27;99615.13;;;26.69;100.00
8575;BME280;4325;42.520;27.448;2023-08-06T05:23:54;99620.31;;;26.74;100.00
8575;BME280;4325;42.520;27.448;2023-08-06T05:26:21;99608.25;;;26.88;100.00
8575;BME280;4325;42.520;27.448;2023-08-06T05:28:48;99616.59;;;27.02;100.00
8575;BME280;4325;42.520;27.448;2023-08-06T05:31:15;99617.72;;;27.18;100.00
8575;BME280;4325;42.520;27.448;2023-08-06T05:33:41;99618.00;;;27.41;100.00
8575;BME280;4325;42.520;27.448;2023-08-06T05:36:10;99615.03;;;27.63;100.00
8575;BME280;4325;42.520;27.448;2023-08-06T05:38:37;99626.88;;;27.88;100.00
8575;BME280;4325;42.520;27.448;2023-08-06T05:41:03;99633.59;;;28.04;100.00
8575;BME280;4325;42.520;27.448;2023-08-06T05:43:30;99639.97;;;28.12;100.00
8575;BME280;4325;42.520;27.448;2023-08-06T05:45:57;99631.09;;;28.13;100.00
8575;BME280;4325;42.520;27.448;2023-08-06T05:48:24;99643.00;;;28.28;100.00
8575;BME280;4325;42.520;27.448;2023-08-06T05:50:53;99633.19;;;28.47;100.00
8575;BME280;4325;42.520;27.448;2023-08-06T05:53:21;99627.88;;;28.52;100.00
8575;BME280;4325;42.520;27.448;2023-08-06T05:55:48;99637.19;;;28.49;100.00
8575;BME280;4325;42.520;27.448;2023-08-06T05:58:15;99641.66;;;28.43;100.00
8575;BME280;4325;42.520;27.448;2023-08-06T06:00:42;99623.47;;;28.51;100.00
8575;BME280;4325;42.520;27.448;2023-08-06T06:03:09;99620.97;;;28.60;100.00
8575;BME280;4325;42.520;27.448;2023-08-06T06:05:37;99627.41;;;28.64;100.00
8575;BME280;4325;42.520;27.448;2023-08-06T06:08:05;99619.22;;;28.73;100.00
8575;BME280;4325;42.520;27.448;2023-08-06T06:10:33;99619.94;;;28.81;100.00
8575;BME280;4325;42.520;27.448;2023-08-06T06:13:01;99629.41;;;28.94;100.00
8575;BME280;4325;42.520;27.448;2023-08-06T06:15:28;99626.28;;;28.89;100.00
8575;BME280;4325;42.520;27.448;2023-08-06T06:17:55;99626.59;;;28.94;100.00
8575;BME280;4325;42.520;27.448;2023-08-06T06:20:22;99626.91;;;29.03;100.00
8575;BME280;4325;42.520;27.448;2023-08-06T06:22:49;99632.34;;;29.17;100.00
8575;BME280;4325;42.520;27.448;2023-08-06T06:25:16;99635.53;;;29.23;100.00
8575;BME280;4325;42.520;27.448;2023-08-06T06:27:44;99646.84;;;29.19;100.00
8575;BME280;4325;42.520;27.448;2023-08-06T06:30:11;99641.56;;;29.21;100.00
8575;BME280;4325;42.520;27.448;2023-08-06T06:32:38;99644.72;;;29.27;100.00
8575;BME280;4325;42.520;27.448;2023-08-06T06:35:07;99644.66;;;29.30;100.00
8575;BME280;4325;42.520;27.448;2023-08-06T06:37:34;99646.50;;;29.44;100.00
8575;BME280;4325;42.520;27.448;2023-08-06T06:40:01;99648.38;;;29.54;100.00
8575;BME280;4325;42.520;27.448;2023-08-06T06:42:27;99650.22;;;29.64;100.00
8575;BME280;4325;42.520;27.448;2023-08-06T06:44:56;99660.53;;;29.74;100.00
8575;BME280;4325;42.520;27.448;2023-08-06T06:47:23;99657.09;;;29.90;100.00
8575;BME280;4325;42.520;27.448;2023-08-06T06:49:50;99660.00;;;30.10;100.00
8575;BME280;4325;42.520;27.448;2023-08-06T06:52:17;99652.06;;;30.24;100.00
8575;BME280;4325;42.520;27.448;2023-08-06T06:54:43;99646.75;;;30.30;100.00
8575;BME280;4325;42.520;27.448;2023-08-06T06:57:10;99654.59;;;30.42;100.00
8575;BME280;4325;42.520;27.448;2023-08-06T06:59:37;99659.47;;;30.41;100.00
8575;BME280;4325;42.520;27.448;2023-08-06T07:02:07;99651.13;;;30.34;100.00
8575;BME280;4325;42.520;27.448;2023-08-06T07:04:33;99649.56;;;30.30;100.00
8575;BME280;4325;42.520;27.448;2023-08-06T07:07:00;99651.50;;;30.33;100.00
8575;BME280;4325;42.520;27.448;2023-08-06T07:09:27;99652.28;;;30.37;100.00
8575;BME280;4325;42.520;27.448;2023-08-06T07:11:54;99663.13;;;30.38;100.00
8575;BME280;4325;42.520;27.448;2023-08-06T07:14:21;99653.00;;;30.41;100.00
8575;BME280;4325;42.520;27.448;2023-08-06T07:16:48;99645.69;;;30.43;100.00
8575;BME280;4325;42.520;27.448;2023-08-06T07:19:16;99648.81;;;30.26;100.00
8575;BME280;4325;42.520;27.448;2023-08-06T07:21:43;99649.28;;;30.21;100.00
8575;BME280;4325;42.520;27.448;2023-08-06T07:24:10;99658.09;;;30.26;100.00
8575;BME280;4325;42.520;27.448;2023-08-06T07:26:37;99652.75;;;30.32;100.00
8575;BME280;4325;42.520;27.448;2023-08-06T07:29:04;99668.97;;;30.51;100.00
8575;BME280;4325;42.520;27.448;2023-08-06T07:31:31;99659.13;;;30.59;100.00
8575;BME280;4325;42.520;27.448;2023-08-06T07:33:58;99671.16;;;30.63;100.00
8575;BME280;4325;42.520;27.448;2023-08-06T07:36:27;99664.63;;;30.66;100.00
8575;BME280;4325;42.520;27.448;2023-08-06T07:38:54;99669.78;;;30.71;100.00
8575;BME280;4325;42.520;27.448;2023-08-06T07:41:22;99674.94;;;30.76;100.00
8575;BME280;4325;42.520;27.448;2023-08-06T07:43:49;99678.13;;;30.78;100.00
8575;BME280;4325;42.520;27.448;2023-08-06T07:46:16;99668.41;;;30.79;100.00
8575;BME280;4325;42.520;27.448;2023-08-06T07:48:43;99662.75;;;30.79;100.00
8575;BME280;4325;42.520;27.448;2023-08-06T07:51:10;99663.50;;;30.83;100.00
8575;BME280;4325;42.520;27.448;2023-08-06T07:53:38;99645.28;;;30.84;100.00
8575;BME280;4325;42.520;27.448;2023-08-06T07:56:05;99639.75;;;31.00;100.00
8575;BME280;4325;42.520;27.448;2023-08-06T07:58:32;99644.22;;;31.17;100.00
8575;BME280;4325;42.520;27.448;2023-08-06T08:00:58;99645.47;;;31.32;100.00
8575;BME280;4325;42.520;27.448;2023-08-06T08:03:25;99646.63;;;31.55;100.00
8575;BME280;4325;42.520;27.448;2023-08-06T08:05:55;99647.06;;;31.69;100.00
8575;BME280;4325;42.520;27.448;2023-08-06T08:08:24;99654.53;;;31.79;100.00
8575;BME280;4325;42.520;27.448;2023-08-06T08:10:53;99648.44;;;31.97;100.00
8575;BME280;4325;42.520;27.448;2023-08-06T08:13:20;99651.88;;;32.21;100.00
8575;BME280;4325;42.520;27.448;2023-08-06T08:15:47;99647.34;;;32.39;99.89
8575;BME280;4325;42.520;27.448;2023-08-06T08:18:14;99660.56;;;32.75;97.78
8575;BME280;4325;42.520;27.448;2023-08-06T08:20:41;99665.06;;;33.42;92.45
8575;BME280;4325;42.520;27.448;2023-08-06T08:23:08;99659.28;;;34.34;82.48
8575;BME280;4325;42.520;27.448;2023-08-06T08:25:35;99668.28;;;35.32;76.07
8575;BME280;4325;42.520;27.448;2023-08-06T08:28:03;99668.63;;;36.80;65.51
8575;BME280;4325;42.520;27.448;2023-08-06T08:30:31;99662.34;;;37.54;57.55
8575;BME280;4325;42.520;27.448;2023-08-06T08:32:58;99662.38;;;39.06;51.87
8575;BME280;4325;42.520;27.448;2023-08-06T08:35:24;99645.03;;;41.03;45.33
8575;BME280;4325;42.520;27.448;2023-08-06T08:37:52;99649.44;;;42.83;40.73
8575;BME280;4325;42.520;27.448;2023-08-06T08:40:20;99643.25;;;43.67;37.91
8575;BME280;4325;42.520;27.448;2023-08-06T08:42:51;99635.25;;;44.40;36.96
8575;BME280;4325;42.520;27.448;2023-08-06T08:45:20;99627.84;;;45.43;34.29
8575;BME280;4325;42.520;27.448;2023-08-06T08:47:49;99619.81;;;46.57;32.65
8575;BME280;4325;42.520;27.448;2023-08-06T08:50:16;99620.25;;;46.85;31.71
8575;BME280;4325;42.520;27.448;2023-08-06T08:52:45;99611.88;;;47.63;31.25
8575;BME280;4325;42.520;27.448;2023-08-06T08:55:14;99609.75;;;48.82;29.26
8575;BME280;4325;42.520;27.448;2023-08-06T08:57:42;99608.66;;;49.60;28.20
8575;BME280;4325;42.520;27.448;2023-08-06T09:00:09;99596.00;;;49.37;28.08
8575;BME280;4325;42.520;27.448;2023-08-06T09:02:38;99590.50;;;48.58;29.09
8575;BME280;4325;42.520;27.448;2023-08-06T09:05:07;99588.97;;;49.74;27.38
8575;BME280;4325;42.520;27.448;2023-08-06T09:07:35;99578.91;;;50.82;26.04
8575;BME280;4325;42.520;27.448;2023-08-06T09:10:07;99562.03;;;50.96;25.82
8575;BME280;4325;42.520;27.448;2023-08-06T09:12:37;99564.81;;;51.46;25.36
8575;BME280;4325;42.520;27.448;2023-08-06T09:15:04;99552.63;;;50.67;25.66
8575;BME280;4325;42.520;27.448;2023-08-06T09:17:31;99546.06;;;50.31;26.32
8575;BME280;4325;42.520;27.448;2023-08-06T09:20:09;99540.69;;;50.50;25.86
8575;BME280;4325;42.520;27.448;2023-08-06T09:22:36;99530.22;;;50.54;25.69
8575;BME280;4325;42.520;27.448;2023-08-06T09:25:03;99529.81;;;51.31;25.23
8575;BME280;4325;42.520;27.448;2023-08-06T09:27:35;99532.56;;;51.60;24.84
8575;BME280;4325;42.520;27.448;2023-08-06T09:30:04;99525.16;;;52.21;24.09
8575;BME280;4325;42.520;27.448;2023-08-06T09:32:45;99520.78;;;51.97;23.70
8575;BME280;4325;42.520;27.448;2023-08-06T09:35:17;99525.09;;;51.89;24.21
8575;BME280;4325;42.520;27.448;2023-08-06T09:37:44;99531.47;;;52.10;23.94
8575;BME280;4325;42.520;27.448;2023-08-06T09:40:28;99534.59;;;52.52;23.53
8575;BME280;4325;42.520;27.448;2023-08-06T09:42:55;99529.34;;;50.82;25.00
8575;BME280;4325;42.520;27.448;2023-08-06T09:45:22;99517.47;;;50.65;25.66
8575;BME280;4325;42.520;27.448;2023-08-06T09:47:49;99505.19;;;50.59;25.74
8575;BME280;4325;42.520;27.448;2023-08-06T09:50:19;99501.19;;;50.26;25.87
8575;BME280;4325;42.520;27.448;2023-08-06T09:52:47;99515.81;;;50.05;26.59
8575;BME280;4325;42.520;27.448;2023-08-06T09:55:14;99499.47;;;50.31;26.32
8575;BME280;4325;42.520;27.448;2023-08-06T09:57:42;99503.91;;;49.39;26.76
8575;BME280;4325;42.520;27.448;2023-08-06T10:00:10;99513.69;;;48.20;28.34
8575;BME280;4325;42.520;27.448;2023-08-06T10:02:38;99516.75;;;48.82;27.52
8575;BME280;4325;42.520;27.448;2023-08-06T10:05:06;99516.91;;;49.38;27.07
8575;BME280;4325;42.520;27.448;2023-08-06T10:07:35;99505.31;;;49.46;26.34
8575;BME280;4325;42.520;27.448;2023-08-06T10:10:05;99495.31;;;47.20;28.97
8575;BME280;4325;42.520;27.448;2023-08-06T10:12:34;99480.69;;;45.15;32.47
8575;BME280;4325;42.520;27.448;2023-08-06T10:15:06;99478.47;;;45.51;32.39
8575;BME280;4325;42.520;27.448;2023-08-06T10:17:36;99472.78;;;45.88;31.92
8575;BME280;4325;42.520;27.448;2023-08-06T10:20:05;99472.81;;;46.63;30.99
8575;BME280;4325;42.520;27.448;2023-08-06T10:22:34;99464.03;;;45.27;32.53
8575;BME280;4325;42.520;27.448;2023-08-06T10:25:02;99470.78;;;43.66;35.18
8575;BME280;4325;42.520;27.448;2023-08-06T10:27:33;99473.25;;;43.34;36.69
8575;BME280;4325;42.520;27.448;2023-08-06T10:30:22;99459.84;;;44.16;35.86
8575;BME280;4325;42.520;27.448;2023-08-06T10:32:51;99464.69;;;45.38;33.84
8575;BME280;4325;42.520;27.448;2023-08-06T10:35:28;99465.25;;;46.04;32.67
8575;BME280;4325;42.520;27.448;2023-08-06T10:37:59;99467.78;;;46.82;31.59
8575;BME280;4325;42.520;27.448;2023-08-06T10:40:29;99470.41;;;47.43;30.63
8575;BME280;4325;42.520;27.448;2023-08-06T10:42:59;99479.53;;;48.00;29.50
8575;BME280;4325;42.520;27.448;2023-08-06T10:45:26;99488.59;;;45.87;32.03
8575;BME280;4325;42.520;27.448;2023-08-06T10:47:56;99548.94;;;43.51;35.91
8575;BME280;4325;42.520;27.448;2023-08-06T10:50:23;99648.34;;;40.36;38.82
8575;BME280;4325;42.520;27.448;2023-08-06T10:52:50;99669.31;;;35.68;45.46
8575;BME280;4325;42.520;27.448;2023-08-06T10:55:27;99689.88;;;30.07;100.00
8575;BME280;4325;42.520;27.448;2023-08-06T10:57:55;99623.25;;;27.39;100.00
8575;BME280;4325;42.520;27.448;2023-08-06T11:00:23;99592.00;;;26.23;100.00
8575;BME280;4325;42.520;27.448;2023-08-06T11:02:51;99588.72;;;27.32;100.00
8575;BME280;4325;42.520;27.448;2023-08-06T11:05:18;99584.78;;;29.23;100.00
8575;BME280;4325;42.520;27.448;2023-08-06T11:07:45;99594.22;;;30.95;100.00
8575;BME280;4325;42.520;27.448;2023-08-06T11:10:13;99611.06;;;31.86;100.00
8575;BME280;4325;42.520;27.448;2023-08-06T11:12:42;99613.97;;;32.76;100.00
8575;BME280;4325;42.520;27.448;2023-08-06T11:15:10;99614.88;;;32.28;100.00
8575;BME280;4325;42.520;27.448;2023-08-06T11:17:39;99624.63;;;30.48;99.79
8575;BME280;4325;42.520;27.448;2023-08-06T11:20:07;99623.41;;;30.02;100.00
8575;BME280;4325;42.520;27.448;2023-08-06T11:22:36;99606.28;;;29.90;100.00
8575;BME280;4325;42.520;27.448;2023-08-06T11:25:05;99598.06;;;29.99;100.00
8575;BME280;4325;42.520;27.448;2023-08-06T11:27:32;99587.41;;;30.92;100.00
8575;BME280;4325;42.520;27.448;2023-08-06T11:30:00;99576.56;;;32.23;84.25
8575;BME280;4325;42.520;27.448;2023-08-06T11:32:27;99588.38;;;34.18;60.60
8575;BME280;4325;42.520;27.448;2023-08-06T11:34:54;99579.56;;;36.40;48.91
8575;BME280;4325;42.520;27.448;2023-08-06T11:37:22;99586.34;;;38.90;42.46
8575;BME280;4325;42.520;27.448;2023-08-06T11:39:51;99574.97;;;39.89;38.82
8575;BME280;4325;42.520;27.448;2023-08-06T11:42:18;99569.13;;;40.18;38.06
8575;BME280;4325;42.520;27.448;2023-08-06T11:44:45;99563.16;;;40.62;36.80
8575;BME280;4325;42.520;27.448;2023-08-06T11:47:15;99558.66;;;43.31;34.15
8575;BME280;4325;42.520;27.448;2023-08-06T11:49:43;99562.75;;;45.36;29.79
8575;BME280;4325;42.520;27.448;2023-08-06T11:52:14;99550.97;;;45.82;25.54
8575;BME280;4325;42.520;27.448;2023-08-06T11:54:42;99550.63;;;45.67;27.66
8575;BME280;4325;42.520;27.448;2023-08-06T11:57:09;99550.47;;;46.45;25.08
8575;BME280;4325;42.520;27.448;2023-08-06T11:59:37;99539.25;;;45.15;26.23
8575;BME280;4325;42.520;27.448;2023-08-06T12:02:05;99547.22;;;44.69;27.58
8575;BME280;4325;42.520;27.448;2023-08-06T12:05:02;99538.44;;;43.26;28.58
8575;BME280;4325;42.520;27.448;2023-08-06T12:07:30;99525.84;;;43.62;27.04
8575;BME280;4325;42.520;27.448;2023-08-06T12:09:57;99499.91;;;44.72;26.73
8575;BME280;4325;42.520;27.448;2023-08-06T12:12:25;99524.25;;;45.95;24.93
8575;BME280;4325;42.520;27.448;2023-08-06T12:14:52;99527.38;;;45.25;24.48
8575;BME280;4325;42.520;27.448;2023-08-06T12:17:19;99533.00;;;45.41;25.43
8575;BME280;4325;42.520;27.448;2023-08-06T12:19:46;99541.50;;;46.06;24.48
8575;BME280;4325;42.520;27.448;2023-08-06T12:22:15;99543.53;;;46.11;23.98
8575;BME280;4325;42.520;27.448;2023-08-06T12:24:42;99552.97;;;46.92;23.34
8575;BME280;4325;42.520;27.448;2023-08-06T12:27:10;99558.91;;;46.62;23.25
8575;BME280;4325;42.520;27.448;2023-08-06T12:29:39;99545.56;;;45.98;23.78
8575;BME280;4325;42.520;27.448;2023-08-06T12:32:07;99551.25;;;46.65;23.53
8575;BME280;4325;42.520;27.448;2023-08-06T12:34:34;99551.88;;;47.98;23.72
8575;BME280;4325;42.520;27.448;2023-08-06T12:37:02;99549.69;;;49.18;21.72
8575;BME280;4325;42.520;27.448;2023-08-06T12:39:30;99555.84;;;48.60;21.73
8575;BME280;4325;42.520;27.448;2023-08-06T12:41:58;99546.22;;;48.65;20.81
8575;BME280;4325;42.520;27.448;2023-08-06T12:44:25;99544.47;;;47.13;22.88
8575;BME280;4325;42.520;27.448;2023-08-06T12:46:52;99545.13;;;46.12;23.46
8575;BME280;4325;42.520;27.448;2023-08-06T12:49:20;99534.31;;;46.69;23.71
8575;BME280;4325;42.520;27.448;2023-08-06T12:51:47;99535.22;;;44.53;25.37
8575;BME280;4325;42.520;27.448;2023-08-06T12:54:16;99533.81;;;45.66;24.51
8575;BME280;4325;42.520;27.448;2023-08-06T12:56:46;99550.84;;;45.94;23.78
8575;BME280;4325;42.520;27.448;2023-08-06T12:59:14;99556.44;;;46.10;23.58
8575;BME280;4325;42.520;27.448;2023-08-06T13:01:42;99553.53;;;46.10;23.71
8575;BME280;4325;42.520;27.448;2023-08-06T13:04:09;99559.00;;;45.95;24.15
8575;BME280;4325;42.520;27.448;2023-08-06T13:06:36;99581.44;;;45.30;25.47
8575;BME280;4325;42.520;27.448;2023-08-06T13:09:04;99571.97;;;44.99;25.45